Time;durP1;ratioP1;P1;durP2;ratioP2;P2;SDS_P1;SDS_P2;PMS_P1;PMS_P2;Temp;Humidity;BMP_temperature;BMP_pressure;BME280_temperature;BME280_humidity;BME280_pressure;Samples;Min_cycle;Max_cycle;Signal;HPM_P1;HPM_P2
2023/12/27 00:01:52;;;;;;;9.13;3.50;;;;;;;1.63;100.00;100969.28;5002276;28;20056;-65
2023/12/27 00:04:19;;;;;;;9.77;3.40;;;;;;;1.45;100.00;100978.69;5007832;28;20052;-66
2023/12/27 00:06:46;;;;;;;8.95;3.40;;;;;;;1.46;100.00;100977.81;5008339;28;20092;-65
2023/12/27 00:09:13;;;;;;;7.65;2.95;;;;;;;1.39;100.00;100970.91;5009540;28;20081;-65
2023/12/27 00:11:40;;;;;;;13.05;3.67;;;;;;;1.20;100.00;100962.22;5005722;28;20062;-64
2023/12/27 00:14:06;;;;;;;9.50;3.90;;;;;;;1.24;100.00;100964.00;5008121;28;20056;-64
2023/12/27 00:16:33;;;;;;;8.32;3.25;;;;;;;1.30;100.00;100960.56;5011900;28;20049;-64
2023/12/27 00:19:00;;;;;;;9.15;3.40;;;;;;;1.35;100.00;100950.25;5012517;28;20056;-64
2023/12/27 00:21:27;;;;;;;10.77;3.30;;;;;;;1.27;100.00;100945.91;5000619;28;20387;-64
2023/12/27 00:23:54;;;;;;;10.90;4.57;;;;;;;1.35;100.00;100951.13;5005021;28;20053;-65
2023/12/27 00:26:21;;;;;;;8.82;3.97;;;;;;;1.33;100.00;100948.53;5011155;28;20050;-65
2023/12/27 00:28:48;;;;;;;9.52;4.03;;;;;;;1.33;100.00;100943.38;5003264;28;20050;-65
2023/12/27 00:31:14;;;;;;;8.43;3.42;;;;;;;1.40;100.00;100952.00;5003654;28;20060;-67
2023/12/27 00:33:41;;;;;;;9.70;4.25;;;;;;;1.35;100.00;100940.81;4995343;28;20520;-66
2023/12/27 00:36:08;;;;;;;8.57;3.38;;;;;;;1.47;100.00;100942.56;5012516;28;20056;-65
2023/12/27 00:38:36;;;;;;;12.82;4.22;;;;;;;1.40;100.00;100938.22;5009165;28;20049;-66
2023/12/27 00:41:04;;;;;;;10.10;3.55;;;;;;;1.49;100.00;100940.88;5011377;28;20049;-65
2023/12/27 00:43:30;;;;;;;8.00;3.38;;;;;;;1.49;100.00;100913.34;5011126;28;20054;-65
2023/12/27 00:45:57;;;;;;;10.95;4.00;;;;;;;1.64;100.00;100915.06;5011488;28;20064;-66
2023/12/27 00:48:24;;;;;;;7.20;2.90;;;;;;;1.72;100.00;100912.53;4984468;28;20061;-65
2023/12/27 00:50:51;;;;;;;9.68;3.53;;;;;;;1.75;100.00;100891.00;4992303;28;20050;-65
2023/12/27 00:53:18;;;;;;;9.38;3.80;;;;;;;1.68;100.00;100903.91;5010887;28;20403;-65
2023/12/27 00:55:45;;;;;;;6.68;2.75;;;;;;;1.74;100.00;100903.06;5006051;28;20054;-65
2023/12/27 00:58:11;;;;;;;6.90;2.90;;;;;;;1.70;100.00;100893.59;4989771;28;20270;-65
2023/12/27 01:00:38;;;;;;;8.13;3.10;;;;;;;1.79;100.00;100890.13;5008112;28;20046;-65
2023/12/27 01:03:06;;;;;;;6.40;2.30;;;;;;;1.78;100.00;100871.22;5010002;28;20128;-65
2023/12/27 01:05:33;;;;;;;6.07;2.28;;;;;;;1.88;100.00;100877.25;5009041;28;20147;-65
2023/12/27 01:08:00;;;;;;;8.05;2.35;;;;;;;1.90;100.00;100873.81;5010167;28;20080;-65
2023/12/27 01:10:27;;;;;;;7.65;2.70;;;;;;;1.95;100.00;100860.91;5007064;28;20508;-65
2023/12/27 01:12:55;;;;;;;8.15;2.50;;;;;;;1.83;100.00;100855.72;5012282;28;20133;-65
2023/12/27 01:15:21;;;;;;;9.70;2.83;;;;;;;1.87;100.00;100854.88;5011950;28;20153;-65
2023/12/27 01:17:48;;;;;;;10.48;4.85;;;;;;;1.87;100.00;100845.38;5011885;28;20042;-65
2023/12/27 01:20:15;;;;;;;10.13;3.53;;;;;;;1.87;100.00;100837.63;5008377;28;20089;-65
2023/12/27 01:22:42;;;;;;;10.07;2.90;;;;;;;1.84;100.00;100824.75;5009419;28;20056;-65
2023/12/27 01:25:09;;;;;;;9.05;3.35;;;;;;;1.83;100.00;100832.50;5010598;28;20088;-65
2023/12/27 01:27:36;;;;;;;7.63;2.60;;;;;;;1.83;100.00;100814.44;5010335;28;20064;-65
2023/12/27 01:30:03;;;;;;;9.40;2.70;;;;;;;1.99;100.00;100823.03;5007903;28;20476;-65
2023/12/27 01:32:30;;;;;;;8.75;3.13;;;;;;;2.02;100.00;100823.00;5011098;28;20061;-65
2023/12/27 01:34:57;;;;;;;10.13;3.28;;;;;;;2.05;100.00;100818.72;4992997;28;20484;-65
2023/12/27 01:37:24;;;;;;;6.10;2.60;;;;;;;2.02;100.00;100820.41;5010787;28;20184;-65
2023/12/27 01:39:51;;;;;;;7.22;3.05;;;;;;;1.93;100.00;100818.72;5011565;28;20049;-65
2023/12/27 01:42:18;;;;;;;6.93;2.75;;;;;;;1.95;100.00;100821.28;5009559;28;20061;-66
2023/12/27 01:44:45;;;;;;;7.72;2.90;;;;;;;1.96;100.00;100815.28;5010367;28;20050;-65
2023/12/27 01:47:13;;;;;;;8.40;2.85;;;;;;;1.90;100.00;100827.31;5010136;28;20427;-65
2023/12/27 01:49:40;;;;;;;9.35;2.75;;;;;;;1.81;100.00;100805.81;5011147;28;20053;-65
2023/12/27 01:52:10;;;;;;;5.82;2.30;;;;;;;1.91;100.00;100807.50;5003928;28;20136;-65
2023/12/27 01:54:37;;;;;;;6.72;2.40;;;;;;;1.74;100.00;100781.72;5003942;28;20344;-65
2023/12/27 01:57:05;;;;;;;6.10;2.33;;;;;;;1.89;100.00;100806.66;5011577;28;20455;-64
2023/12/27 01:59:32;;;;;;;9.05;2.65;;;;;;;1.87;100.00;100788.59;5004303;28;20093;-64
2023/12/27 02:01:58;;;;;;;6.15;2.15;;;;;;;1.92;100.00;100805.81;4998454;28;20132;-64
2023/12/27 02:04:25;;;;;;;5.72;2.30;;;;;;;1.90;100.00;100796.34;5010246;28;20057;-65
2023/12/27 02:06:53;;;;;;;7.32;3.28;;;;;;;1.97;100.00;100792.03;5010903;28;20046;-65
2023/12/27 02:09:20;;;;;;;6.10;2.88;;;;;;;2.02;100.00;100785.13;5009904;28;20069;-65
2023/12/27 02:11:46;;;;;;;6.28;2.30;;;;;;;2.07;100.00;100780.81;5007713;28;20112;-65
2023/12/27 02:14:13;;;;;;;8.13;2.33;;;;;;;2.26;100.00;100771.28;5010183;28;21199;-65
2023/12/27 02:16:40;;;;;;;5.35;2.22;;;;;;;2.34;100.00;100760.94;5010806;28;20128;-65
2023/12/27 02:19:13;;;;;;;4.75;2.05;;;;;;;2.37;100.00;100741.97;5010192;28;20046;-64
2023/12/27 02:21:40;;;;;;;8.90;2.58;;;;;;;2.74;100.00;100731.47;5005064;28;20535;-65
2023/12/27 02:24:08;;;;;;;5.28;1.88;;;;;;;3.24;100.00;100730.31;5009927;28;20055;-65
2023/12/27 02:26:35;;;;;;;7.25;1.73;;;;;;;3.30;100.00;100722.47;5009381;28;20056;-65
2023/12/27 02:29:02;;;;;;;3.83;1.60;;;;;;;3.74;100.00;100718.63;5004243;28;20279;-65
2023/12/27 02:31:29;;;;;;;4.03;1.42;;;;;;;4.13;100.00;100706.13;5005697;28;20141;-65
2023/12/27 02:33:56;;;;;;;7.78;1.73;;;;;;;4.36;100.00;100694.66;5010269;28;20423;-65
2023/12/27 02:36:23;;;;;;;6.20;1.52;;;;;;;4.50;100.00;100697.06;5009323;28;20058;-65
2023/12/27 02:38:50;;;;;;;11.10;2.42;;;;;;;4.62;100.00;100693.44;5009292;28;20085;-65
2023/12/27 02:41:17;;;;;;;6.38;1.77;;;;;;;4.93;100.00;100680.88;5008040;28;20056;-65
2023/12/27 02:43:43;;;;;;;5.88;1.63;;;;;;;5.22;100.00;100692.53;5009279;28;20049;-65
2023/12/27 02:46:10;;;;;;;7.63;1.40;;;;;;;5.24;100.00;100682.97;5002062;28;20506;-65
2023/12/27 02:48:37;;;;;;;9.20;2.47;;;;;;;5.07;100.00;100673.75;5010061;28;20054;-65
2023/12/27 02:51:04;;;;;;;8.63;1.48;;;;;;;5.03;100.00;100653.03;5005889;28;20057;-66
2023/12/27 02:53:30;;;;;;;5.93;1.38;;;;;;;5.22;100.00;100674.38;5009220;28;20050;-65
2023/12/27 02:55:57;;;;;;;7.45;1.58;;;;;;;5.21;100.00;100660.53;5008124;28;20500;-65
2023/12/27 02:58:24;;;;;;;7.53;1.80;;;;;;;5.28;100.00;100664.75;5009056;28;20050;-65
2023/12/27 03:00:50;;;;;;;8.30;1.65;;;;;;;5.34;100.00;100666.38;5008662;28;20046;-65
2023/12/27 03:03:17;;;;;;;5.78;1.50;;;;;;;5.42;100.00;100656.72;5010041;28;20077;-65
2023/12/27 03:05:44;;;;;;;4.63;1.40;;;;;;;5.55;100.00;100649.56;5009022;28;20060;-65
2023/12/27 03:08:11;;;;;;;3.95;1.52;;;;;;;5.57;100.00;100647.78;5009853;28;20053;-65
2023/12/27 03:10:37;;;;;;;4.63;1.35;;;;;;;5.77;100.00;100638.75;4992719;28;20153;-65
2023/12/27 03:13:05;;;;;;;4.75;1.30;;;;;;;5.43;100.00;100597.84;5002192;28;20053;-65
2023/12/27 03:15:31;;;;;;;8.00;1.60;;;;;;;5.70;100.00;100618.13;4998339;28;20045;-65
2023/12/27 03:17:58;;;;;;;7.57;1.35;;;;;;;5.53;100.00;100620.16;5008712;28;20502;-65
2023/12/27 03:20:25;;;;;;;6.30;1.33;;;;;;;5.68;100.00;100619.88;5007785;28;20352;-65
2023/12/27 03:22:52;;;;;;;7.70;2.00;;;;;;;5.73;100.00;100606.78;5009837;28;20100;-65
2023/12/27 03:25:19;;;;;;;6.68;1.70;;;;;;;5.85;100.00;100610.91;5009585;28;20064;-65
2023/12/27 03:27:45;;;;;;;6.40;1.30;;;;;;;5.58;100.00;100605.34;4998537;28;20145;-65
2023/12/27 03:30:12;;;;;;;7.78;1.77;;;;;;;5.84;100.00;100599.66;5005921;28;20054;-65
2023/12/27 03:32:39;;;;;;;7.30;1.50;;;;;;;5.76;100.00;100582.50;4995675;28;20200;-65
2023/12/27 03:35:06;;;;;;;13.32;1.98;;;;;;;5.75;100.00;100583.38;5002695;28;20385;-65
2023/12/27 03:37:33;;;;;;;6.40;2.17;;;;;;;5.76;100.00;100580.75;4996769;28;20096;-66
2023/12/27 03:39:59;;;;;;;12.80;2.58;;;;;;;6.04;100.00;100568.09;5005600;28;20060;-65
2023/12/27 03:42:26;;;;;;;6.75;1.83;;;;;;;6.05;100.00;100556.78;5005524;28;20054;-65
2023/12/27 03:44:53;;;;;;;8.82;1.67;;;;;;;6.11;100.00;100549.75;5008833;28;20058;-65
2023/12/27 03:47:20;;;;;;;12.00;1.63;;;;;;;6.14;100.00;100552.28;5007827;28;20081;-65
2023/12/27 03:49:47;;;;;;;7.60;1.67;;;;;;;5.95;100.00;100524.06;5005498;28;20132;-65
2023/12/27 03:52:14;;;;;;;9.85;1.77;;;;;;;5.89;100.00;100529.38;5011886;28;20074;-65
2023/12/27 03:54:41;;;;;;;7.88;1.70;;;;;;;6.00;100.00;100534.38;5013568;28;20060;-65
2023/12/27 03:57:08;;;;;;;6.70;1.50;;;;;;;6.10;100.00;100515.09;5010276;28;20057;-65
2023/12/27 03:59:38;;;;;;;8.43;3.65;;;;;;;6.15;100.00;100517.59;5007951;28;20758;-65
2023/12/27 04:02:05;;;;;;;8.57;1.50;;;;;;;5.96;100.00;100510.19;5010840;28;20051;-65
2023/12/27 04:04:33;;;;;;;5.95;1.52;;;;;;;6.08;100.00;100504.72;5012998;28;20111;-65
2023/12/27 04:07:00;;;;;;;5.13;1.50;;;;;;;6.04;100.00;100492.69;5000171;28;20053;-65
2023/12/27 04:09:27;;;;;;;9.45;1.83;;;;;;;5.93;100.00;100486.84;5012534;28;20065;-65
2023/12/27 04:11:53;;;;;;;22.73;2.80;;;;;;;6.06;100.00;100477.06;5000037;28;20057;-65
2023/12/27 04:14:20;;;;;;;12.25;2.00;;;;;;;6.16;100.00;100475.97;5013729;28;20050;-65
2023/12/27 04:16:47;;;;;;;8.50;1.98;;;;;;;6.14;100.00;100467.34;5010909;28;20060;-65
2023/12/27 04:19:14;;;;;;;7.93;1.70;;;;;;;6.03;100.00;100449.41;5012894;28;20052;-65
2023/12/27 04:21:42;;;;;;;13.27;3.05;;;;;;;5.89;100.00;100441.03;5008853;28;20451;-64
2023/12/27 04:24:09;;;;;;;10.85;2.25;;;;;;;6.01;100.00;100438.19;5012396;28;20541;-64
2023/12/27 04:26:40;;;;;;;12.45;2.40;;;;;;;6.08;100.00;100433.72;5012352;28;20141;-65
2023/12/27 04:29:10;;;;;;;9.93;2.30;;;;;;;6.13;100.00;100438.81;4997567;28;20046;-64
2023/12/27 04:31:37;;;;;;;13.00;2.38;;;;;;;5.93;100.00;100418.44;5005597;28;20411;-65
2023/12/27 04:34:04;;;;;;;13.60;2.13;;;;;;;6.35;100.00;100441.72;5012467;28;20050;-65
2023/12/27 04:36:32;;;;;;;10.27;1.80;;;;;;;6.11;100.00;100428.44;5009297;28;20049;-65
2023/12/27 04:38:58;;;;;;;5.68;1.80;;;;;;;6.30;100.00;100426.22;5010565;28;20057;-65
2023/12/27 04:41:25;;;;;;;6.53;1.50;;;;;;;6.17;100.00;100427.44;5009927;28;20045;-65
2023/12/27 04:43:52;;;;;;;8.55;3.35;;;;;;;6.24;100.00;100427.22;5012938;28;20054;-65
2023/12/27 04:46:19;;;;;;;6.25;1.83;;;;;;;6.44;100.00;100431.94;5012561;28;20407;-65
2023/12/27 04:48:45;;;;;;;4.53;1.60;;;;;;;6.37;100.00;100419.13;5012956;28;20144;-65
2023/12/27 04:51:12;;;;;;;9.38;2.35;;;;;;;6.35;100.00;100413.97;5007701;28;20050;-65
2023/12/27 04:53:39;;;;;;;12.00;2.28;;;;;;;6.25;100.00;100413.34;5012334;28;20054;-65
2023/12/27 04:56:06;;;;;;;6.85;1.52;;;;;;;6.30;100.00;100402.81;5012601;28;20092;-65
2023/12/27 04:58:35;;;;;;;8.68;1.90;;;;;;;6.58;100.00;100404.72;5010217;28;20058;-66
2023/12/27 05:01:04;;;;;;;9.85;1.85;;;;;;;6.31;100.00;100383.75;5004445;28;20416;-64
2023/12/27 05:03:35;;;;;;;10.63;2.22;;;;;;;6.42;100.00;100371.31;5012306;28;20081;-64
2023/12/27 05:06:02;;;;;;;10.52;2.08;;;;;;;6.44;100.00;100373.88;4983443;28;20062;-64
2023/12/27 05:08:29;;;;;;;7.05;1.92;;;;;;;6.46;100.00;100372.94;5024235;28;20049;-65
2023/12/27 05:10:55;;;;;;;9.38;2.40;;;;;;;6.45;100.00;100353.03;5010848;28;20049;-65
2023/12/27 05:13:22;;;;;;;6.78;1.75;;;;;;;6.34;100.00;100339.47;5011983;28;20061;-65
2023/12/27 05:15:49;;;;;;;8.80;2.40;;;;;;;6.30;100.00;100353.41;5012301;28;20066;-65
2023/12/27 05:18:16;;;;;;;8.65;1.85;;;;;;;6.62;100.00;100336.97;5011633;28;20682;-65
2023/12/27 05:20:43;;;;;;;9.15;1.92;;;;;;;6.45;100.00;100340.03;5004259;28;20472;-65
2023/12/27 05:23:09;;;;;;;8.68;1.77;;;;;;;6.42;100.00;100334.06;5005033;28;20057;-65
2023/12/27 05:25:36;;;;;;;9.50;1.70;;;;;;;6.40;100.00;100322.84;4999375;28;20068;-65
2023/12/27 05:28:03;;;;;;;9.65;2.13;;;;;;;6.31;100.00;100321.34;5011732;28;20392;-65
2023/12/27 05:30:31;;;;;;;9.88;2.05;;;;;;;6.35;100.00;100304.75;4996282;28;20157;-65
2023/12/27 05:32:58;;;;;;;8.52;1.80;;;;;;;6.73;100.00;100308.06;5002008;28;20065;-66
2023/12/27 05:35:25;;;;;;;7.95;2.00;;;;;;;6.77;100.00;100304.44;5010361;28;20076;-66
2023/12/27 05:37:52;;;;;;;13.18;2.13;;;;;;;6.62;100.00;100295.34;5010271;28;20096;-65
2023/12/27 05:40:18;;;;;;;12.57;2.10;;;;;;;6.57;100.00;100278.13;5007585;28;20046;-65
2023/12/27 05:42:45;;;;;;;11.32;2.55;;;;;;;6.59;100.00;100261.59;5011462;28;20164;-65
2023/12/27 05:45:12;;;;;;;12.50;2.28;;;;;;;6.56;100.00;100263.44;5011942;28;20046;-65
2023/12/27 05:47:38;;;;;;;15.38;2.90;;;;;;;6.50;100.00;100246.28;5011132;28;20056;-65
2023/12/27 05:50:06;;;;;;;9.95;2.03;;;;;;;6.54;100.00;100253.09;5009711;28;20515;-65
2023/12/27 05:52:33;;;;;;;8.73;1.95;;;;;;;6.34;100.00;100252.78;5008627;28;20058;-65
2023/12/27 05:54:59;;;;;;;13.80;3.08;;;;;;;6.38;100.00;100260.47;5009481;28;20050;-65
2023/12/27 05:57:26;;;;;;;13.55;3.15;;;;;;;6.50;100.00;100248.88;4993188;28;20061;-65
2023/12/27 05:59:53;;;;;;;15.68;2.58;;;;;;;6.44;100.00;100247.28;5004127;28;20080;-65
2023/12/27 06:02:20;;;;;;;7.55;1.80;;;;;;;6.33;100.00;100258.91;5000236;28;20046;-65
2023/12/27 06:04:46;;;;;;;10.18;2.88;;;;;;;6.49;100.00;100252.34;5006475;28;20057;-65
2023/12/27 06:07:13;;;;;;;10.55;2.15;;;;;;;6.53;100.00;100240.13;5010422;28;20195;-64
2023/12/27 06:09:40;;;;;;;14.55;2.78;;;;;;;6.65;100.00;100231.97;5009270;28;20050;-64
2023/12/27 06:12:09;;;;;;;7.72;1.77;;;;;;;6.54;100.00;100205.41;4999493;28;20054;-64
2023/12/27 06:14:36;;;;;;;7.43;1.70;;;;;;;6.60;100.00;100218.22;5007247;28;20539;-66
2023/12/27 06:17:03;;;;;;;15.73;2.50;;;;;;;6.52;100.00;100218.47;5004485;28;20045;-65
2023/12/27 06:19:35;;;;;;;12.13;2.53;;;;;;;6.49;100.00;100173.50;5010549;28;20132;-65
2023/12/27 06:22:02;;;;;;;14.27;3.05;;;;;;;6.72;100.00;100165.00;5001690;28;20316;-65
2023/12/27 06:24:30;;;;;;;17.42;2.85;;;;;;;6.60;100.00;100150.59;5005685;28;20160;-65
2023/12/27 06:26:57;;;;;;;12.38;2.42;;;;;;;6.74;100.00;100144.97;5004307;28;20578;-65
2023/12/27 06:29:24;;;;;;;15.00;2.10;;;;;;;6.87;100.00;100138.50;5002309;28;20053;-65
2023/12/27 06:31:51;;;;;;;12.10;2.20;;;;;;;6.67;100.00;100144.31;5001703;28;20052;-65
2023/12/27 06:34:18;;;;;;;10.65;2.58;;;;;;;6.56;100.00;100130.78;5009053;28;20385;-65
2023/12/27 06:36:47;;;;;;;9.95;2.10;;;;;;;6.78;100.00;100144.84;5009312;28;20096;-65
2023/12/27 06:39:15;;;;;;;10.35;2.15;;;;;;;6.75;100.00;100125.88;5008530;28;20049;-65
2023/12/27 06:41:41;;;;;;;12.40;2.78;;;;;;;6.56;100.00;100125.59;5004891;28;20056;-65
2023/12/27 06:44:08;;;;;;;13.85;2.55;;;;;;;6.60;100.00;100116.78;5002811;28;20224;-65
2023/12/27 06:46:35;;;;;;;15.82;2.15;;;;;;;6.69;100.00;100113.03;5000787;28;20149;-65
2023/12/27 06:49:02;;;;;;;13.23;1.77;;;;;;;6.71;100.00;100100.84;4999094;28;20053;-65
2023/12/27 06:51:29;;;;;;;13.50;2.70;;;;;;;6.79;100.00;100091.03;5004821;28;20408;-65
2023/12/27 06:53:55;;;;;;;11.45;2.53;;;;;;;6.76;100.00;100080.72;5000259;28;20116;-65
2023/12/27 06:56:22;;;;;;;15.15;2.65;;;;;;;6.69;100.00;100069.66;5007301;28;20054;-65
2023/12/27 06:58:49;;;;;;;13.55;2.50;;;;;;;6.90;100.00;100051.66;5001588;28;20064;-65
2023/12/27 07:01:16;;;;;;;15.75;2.63;;;;;;;6.57;100.00;100044.03;4996584;28;20460;-65
2023/12/27 07:03:43;;;;;;;16.15;2.60;;;;;;;6.46;100.00;100041.78;5006528;28;20128;-65
2023/12/27 07:06:09;;;;;;;18.13;3.30;;;;;;;6.80;100.00;100045.91;5001327;28;20053;-65
2023/12/27 07:08:36;;;;;;;13.32;2.30;;;;;;;6.70;100.00;100021.09;5007660;28;20084;-65
2023/12/27 07:11:03;;;;;;;18.52;3.30;;;;;;;6.75;100.00;100032.22;5006703;28;20042;-66
2023/12/27 07:13:30;;;;;;;14.10;2.42;;;;;;;6.72;100.00;100004.53;5010408;28;20045;-66
2023/12/27 07:15:57;;;;;;;16.67;2.83;;;;;;;6.72;100.00;100011.50;4992146;28;20060;-66
2023/12/27 07:18:24;;;;;;;11.77;2.55;;;;;;;6.77;100.00;100005.22;5008664;28;20515;-66
2023/12/27 07:20:51;;;;;;;13.68;2.30;;;;;;;6.69;100.00;99996.81;5003031;28;20039;-66
2023/12/27 07:23:18;;;;;;;16.20;3.30;;;;;;;6.72;100.00;99988.06;5002919;28;20060;-66
2023/12/27 07:25:44;;;;;;;16.60;3.33;;;;;;;6.58;100.00;99997.19;5007715;28;20065;-65
2023/12/27 07:28:11;;;;;;;14.73;2.83;;;;;;;6.33;100.00;99983.28;5007902;28;20049;-64
2023/12/27 07:30:38;;;;;;;8.25;2.10;;;;;;;5.68;100.00;99941.94;5003443;28;20680;-64
2023/12/27 07:33:04;;;;;;;13.65;2.70;;;;;;;5.93;100.00;99924.72;5007055;28;20141;-65
2023/12/27 07:35:32;;;;;;;9.90;2.35;;;;;;;5.87;100.00;99924.00;4990508;28;20077;-65
2023/12/27 07:38:00;;;;;;;10.32;2.60;;;;;;;5.61;100.00;99932.63;5007121;28;20071;-65
2023/12/27 07:40:27;;;;;;;11.15;2.15;;;;;;;5.45;100.00;99931.38;5004376;28;20673;-65
2023/12/27 07:42:53;;;;;;;19.30;3.17;;;;;;;5.47;100.00;99899.28;5008005;28;20057;-64
2023/12/27 07:45:22;;;;;;;16.13;2.75;;;;;;;5.59;100.00;99890.25;5009171;28;20050;-64
2023/12/27 07:47:49;;;;;;;11.75;2.20;;;;;;;5.43;100.00;99897.66;5006559;28;20060;-64
2023/12/27 07:50:16;;;;;;;19.67;3.28;;;;;;;5.50;100.00;99885.34;5008449;28;20053;-64
2023/12/27 07:52:43;;;;;;;13.25;2.80;;;;;;;5.18;100.00;99868.97;5005087;28;20054;-65
2023/12/27 07:55:10;;;;;;;16.38;3.10;;;;;;;5.40;100.00;99876.13;5006818;28;20045;-64
2023/12/27 07:57:37;;;;;;;19.23;3.92;;;;;;;5.42;100.00;99862.22;5009963;28;20093;-65
2023/12/27 08:00:07;;;;;;;16.55;2.67;;;;;;;5.28;100.00;99852.25;5000847;28;20511;-64
2023/12/27 08:02:34;;;;;;;14.57;2.50;;;;;;;5.39;100.00;99856.28;4993036;28;20054;-64
2023/12/27 08:05:00;;;;;;;13.32;2.85;;;;;;;5.42;100.00;99845.78;4995640;28;20056;-64
2023/12/27 08:07:29;;;;;;;19.33;3.88;;;;;;;5.25;100.00;99831.56;5008233;28;20125;-64
2023/12/27 08:09:55;;;;;;;13.43;3.33;;;;;;;5.25;100.00;99828.97;5006153;28;20060;-65
2023/12/27 08:12:22;;;;;;;12.73;3.35;;;;;;;5.05;100.00;99858.13;4997953;28;20100;-65
2023/12/27 08:14:49;;;;;;;13.45;3.17;;;;;;;5.09;100.00;99831.16;5003923;28;20081;-65
2023/12/27 08:17:15;;;;;;;17.30;2.75;;;;;;;5.14;100.00;99836.25;5008977;28;20058;-65
2023/12/27 08:19:42;;;;;;;22.70;3.53;;;;;;;5.17;100.00;99781.66;5008409;28;20054;-66
2023/12/27 08:22:09;;;;;;;14.60;3.95;;;;;;;5.08;100.00;99795.75;5007291;28;20068;-65
2023/12/27 08:24:36;;;;;;;20.83;3.38;;;;;;;5.19;100.00;99813.59;5002874;28;20088;-65
2023/12/27 08:27:02;;;;;;;23.92;4.22;;;;;;;5.20;100.00;99823.06;5007643;28;20042;-64
2023/12/27 08:29:29;;;;;;;22.63;3.25;;;;;;;5.26;100.00;99801.28;5004936;28;20141;-64
2023/12/27 08:31:56;;;;;;;16.23;2.97;;;;;;;5.16;100.00;99813.69;4996072;28;20043;-64
2023/12/27 08:34:23;;;;;;;17.55;3.38;;;;;;;5.04;100.00;99780.31;5008478;28;20058;-65
2023/12/27 08:36:49;;;;;;;21.70;4.78;;;;;;;5.27;100.00;99777.84;5009654;28;20067;-65
2023/12/27 08:39:16;;;;;;;15.38;2.90;;;;;;;5.17;100.00;99801.53;4998209;28;20042;-65
2023/12/27 08:41:43;;;;;;;23.90;3.28;;;;;;;5.11;100.00;99777.47;5011063;28;20054;-65
2023/12/27 08:44:09;;;;;;;15.60;2.90;;;;;;;5.24;100.00;99772.78;5000086;28;20480;-65
2023/12/27 08:46:36;;;;;;;20.75;4.78;;;;;;;5.15;100.00;99723.75;5010324;28;20157;-65
2023/12/27 08:49:03;;;;;;;12.43;3.95;;;;;;;4.91;100.00;99730.56;4995858;28;20058;-65
2023/12/27 08:51:30;;;;;;;11.77;2.20;;;;;;;4.85;100.00;99713.44;5003116;28;20060;-65
2023/12/27 08:53:58;;;;;;;14.75;2.47;;;;;;;5.03;100.00;99729.31;5011194;28;20161;-65
2023/12/27 08:56:25;;;;;;;11.98;3.00;;;;;;;5.00;100.00;99726.84;5011352;28;20140;-66
2023/12/27 08:58:52;;;;;;;19.00;4.25;;;;;;;4.88;100.00;99726.28;5010940;28;20050;-65
2023/12/27 09:01:18;;;;;;;15.68;3.53;;;;;;;4.92;100.00;99730.50;5006843;28;20069;-65
2023/12/27 09:03:45;;;;;;;23.58;3.45;;;;;;;4.89;100.00;99670.94;5000444;28;20050;-65
2023/12/27 09:06:12;;;;;;;14.65;2.92;;;;;;;5.12;100.00;99664.19;5011426;28;20565;-64
2023/12/27 09:08:39;;;;;;;13.93;2.70;;;;;;;4.97;100.00;99660.31;5004847;28;20101;-65
2023/12/27 09:11:07;;;;;;;14.07;2.67;;;;;;;4.94;100.00;99650.06;5007915;28;20085;-65
2023/12/27 09:13:33;;;;;;;14.93;3.42;;;;;;;4.79;100.00;99622.00;5012049;28;20046;-65
2023/12/27 09:16:03;;;;;;;14.32;3.25;;;;;;;4.73;100.00;99623.88;4993675;28;20476;-65
2023/12/27 09:18:30;;;;;;;10.55;3.00;;;;;;;5.01;100.00;99640.31;5008585;28;20053;-65
2023/12/27 09:20:56;;;;;;;17.10;2.63;;;;;;;4.78;100.00;99609.91;5004269;28;20046;-65
2023/12/27 09:23:23;;;;;;;16.98;3.30;;;;;;;4.73;100.00;99623.03;4989357;28;20046;-65
2023/12/27 09:25:50;;;;;;;11.20;2.38;;;;;;;4.65;100.00;99599.94;5011155;28;20376;-65
2023/12/27 09:28:18;;;;;;;14.50;2.80;;;;;;;4.71;100.00;99572.94;5011494;28;20056;-65
2023/12/27 09:30:46;;;;;;;21.20;3.50;;;;;;;4.51;100.00;99579.63;5005680;28;20491;-65
2023/12/27 09:33:12;;;;;;;23.05;3.97;;;;;;;4.91;100.00;99583.53;5011104;28;20162;-65
2023/12/27 09:35:43;;;;;;;30.55;6.03;;;;;;;4.75;100.00;99564.19;5009667;28;20050;-65
2023/12/27 09:38:10;;;;;;;13.05;3.17;;;;;;;4.57;100.00;99581.19;5010783;28;20060;-65
2023/12/27 09:40:37;;;;;;;13.85;3.50;;;;;;;4.56;100.00;99571.72;5009657;28;20558;-65
2023/12/27 09:43:05;;;;;;;14.75;3.45;;;;;;;4.59;100.00;99566.44;5011639;28;20050;-65
2023/12/27 09:45:36;;;;;;;20.60;3.17;;;;;;;4.58;100.00;99551.75;5009751;28;20054;-65
2023/12/27 09:48:06;;;;;;;17.45;3.30;;;;;;;4.55;100.00;99549.25;5007254;28;20053;-65
2023/12/27 09:50:35;;;;;;;12.98;2.58;;;;;;;4.53;100.00;99567.47;5008832;28;20054;-65
2023/12/27 09:53:04;;;;;;;14.75;3.97;;;;;;;4.40;100.00;99539.41;5001122;28;20057;-65
2023/12/27 09:55:32;;;;;;;18.95;3.10;;;;;;;4.37;100.00;99537.72;5010720;28;20049;-65
2023/12/27 09:57:59;;;;;;;11.98;3.30;;;;;;;4.14;100.00;99507.34;5010724;28;20439;-65
2023/12/27 10:00:31;;;;;;;14.55;3.40;;;;;;;4.42;100.00;99515.13;4987694;28;20188;-65
2023/12/27 10:02:59;;;;;;;15.88;3.53;;;;;;;4.52;100.00;99511.34;5002857;28;20500;-65
2023/12/27 10:05:55;;;;;;;14.57;2.70;;;;;;;4.35;100.00;99537.78;5009814;28;20500;-65
2023/12/27 10:08:22;;;;;;;15.45;3.30;;;;;;;4.22;100.00;99497.63;5008119;28;20058;-65
2023/12/27 10:10:51;;;;;;;17.38;3.80;;;;;;;4.33;100.00;99489.50;4990949;28;20075;-65
2023/12/27 10:13:19;;;;;;;11.15;2.53;;;;;;;4.17;100.00;99499.50;4993119;28;20548;-66
2023/12/27 10:15:46;;;;;;;13.60;2.70;;;;;;;4.16;100.00;99483.13;5007138;28;20049;-65
2023/12/27 10:18:13;;;;;;;12.85;3.13;;;;;;;4.29;100.00;99457.66;5008113;28;20144;-65
2023/12/27 10:20:43;;;;;;;16.52;3.38;;;;;;;4.35;100.00;99459.19;5010243;28;20585;-65
2023/12/27 10:23:10;;;;;;;14.85;3.50;;;;;;;4.17;100.00;99466.66;5006245;28;20555;-65
2023/12/27 10:25:37;;;;;;;16.65;3.08;;;;;;;4.27;100.00;99449.09;5006440;28;20056;-65
2023/12/27 10:28:03;;;;;;;16.55;3.75;;;;;;;4.31;100.00;99442.06;5002930;28;20043;-66
2023/12/27 10:30:30;;;;;;;10.52;2.17;;;;;;;4.14;100.00;99443.47;4999406;28;20536;-65
2023/12/27 10:33:02;;;;;;;10.60;2.25;;;;;;;4.03;100.00;99426.56;4996580;28;20501;-65
2023/12/27 10:35:34;;;;;;;16.77;3.08;;;;;;;4.21;100.00;99427.69;5007517;28;20093;-65
2023/12/27 10:38:05;;;;;;;15.15;3.22;;;;;;;4.29;100.00;99403.25;5010132;28;20050;-65
2023/12/27 10:40:34;;;;;;;16.08;2.88;;;;;;;4.27;100.00;99378.28;5004481;28;20073;-65
2023/12/27 10:43:00;;;;;;;15.25;3.35;;;;;;;4.28;100.00;99354.88;4999999;28;20161;-65
2023/12/27 10:45:27;;;;;;;13.73;3.50;;;;;;;4.35;100.00;99351.19;4991515;28;20051;-65
2023/12/27 10:48:06;;;;;;;13.82;3.55;;;;;;;4.53;100.00;99351.47;4997745;28;20045;-65
2023/12/27 10:53:14;;;;;;;13.52;2.58;;;;;;;4.14;100.00;99357.97;5019828;23;20056;-73
2023/12/27 10:55:42;;;;;;;14.27;3.00;;;;;;;4.23;100.00;99345.59;5029581;28;20049;-71
2023/12/27 11:00:46;;;;;;;13.35;3.55;;;;;;;4.42;100.00;99292.22;5778982;22;20086;-73
2023/12/27 11:03:14;;;;;;;14.07;3.30;;;;;;;4.26;100.00;99281.56;5006903;28;20457;-72
2023/12/27 11:05:41;;;;;;;20.48;5.55;;;;;;;4.34;100.00;99264.00;5002460;28;20470;-72
2023/12/27 11:08:10;;;;;;;17.55;4.00;;;;;;;4.41;100.00;99267.22;4995813;28;20047;-72
2023/12/27 11:10:39;;;;;;;33.08;4.53;;;;;;;4.43;100.00;99255.06;5007961;28;20107;-72
2023/12/27 11:13:09;;;;;;;19.63;3.58;;;;;;;4.44;100.00;99246.34;5001403;28;20277;-73
2023/12/27 11:15:39;;;;;;;27.73;4.68;;;;;;;4.23;100.00;99242.78;4989497;28;20082;-73
2023/12/27 11:18:08;;;;;;;13.80;2.63;;;;;;;4.06;100.00;99211.47;5002337;28;20096;-72
2023/12/27 11:20:36;;;;;;;20.02;4.10;;;;;;;3.83;100.00;99183.81;4998976;28;20081;-73
2023/12/27 11:23:03;;;;;;;22.75;4.70;;;;;;;4.02;100.00;99184.84;4993011;28;20732;-72
2023/12/27 11:25:30;;;;;;;11.90;2.90;;;;;;;4.14;100.00;99179.22;5003296;28;20049;-73
2023/12/27 11:27:58;;;;;;;23.88;4.18;;;;;;;4.08;100.00;99161.31;4998151;28;20056;-72
2023/12/27 11:30:26;;;;;;;14.45;3.95;;;;;;;3.93;100.00;99136.81;4984670;28;20046;-72